createdAt,value
2023-04-16T00:01:04.643Z,95238.04
2023-04-16T00:03:34.259Z,95241.95
2023-04-16T00:06:02.876Z,95249.42
2023-04-16T00:08:31.171Z,95249.52
2023-04-16T00:10:59.531Z,95249.34
2023-04-16T00:13:28.127Z,95245.79
2023-04-16T00:15:56.408Z,95247.73
2023-04-16T00:18:24.878Z,95249.92
2023-04-16T00:20:53.687Z,95248.51
2023-04-16T00:23:22.049Z,95253.23
2023-04-16T00:25:50.267Z,95257.59
2023-04-16T00:28:18.608Z,95260.48
2023-04-16T00:30:47.115Z,95260.81
2023-04-16T00:33:16.201Z,95260.10
2023-04-16T00:35:48.283Z,95264.98
2023-04-16T00:38:16.951Z,95264.15
2023-04-16T00:40:45.545Z,95264.27
2023-04-16T00:43:23.062Z,95263.41
2023-04-16T00:45:53.111Z,95261.11
2023-04-16T00:48:21.559Z,95264.38
2023-04-16T00:50:49.625Z,95263.68
2023-04-16T00:53:17.974Z,95264.81
2023-04-16T00:55:46.558Z,95263.37
2023-04-16T00:58:14.941Z,95262.91
2023-04-16T01:00:43.320Z,95264.48
2023-04-16T01:03:12.037Z,95265.66
2023-04-16T01:05:41.121Z,95266.36
2023-04-16T01:08:20.605Z,95265.84
2023-04-16T01:10:48.849Z,95264.95
2023-04-16T01:13:17.206Z,95262.95
2023-04-16T01:15:45.582Z,95262.11
2023-04-16T01:18:18.789Z,95260.10
2023-04-16T01:20:48.748Z,95259.20
2023-04-16T01:23:21.003Z,95258.96
2023-04-16T01:25:49.267Z,95257.46
2023-04-16T01:28:18.078Z,95260.04
2023-04-16T01:30:46.342Z,95260.32
2023-04-16T01:33:34.890Z,95259.70
2023-04-16T01:36:03.187Z,95257.80
2023-04-16T01:38:31.385Z,95256.76
2023-04-16T01:41:00.238Z,95257.50
2023-04-16T01:43:28.515Z,95254.66
2023-04-16T01:46:20.716Z,95255.05
2023-04-16T01:48:49.123Z,95252.06
2023-04-16T01:51:17.402Z,95254.42
2023-04-16T01:53:46.496Z,95253.44
2023-04-16T01:56:14.674Z,95252.78
2023-04-16T01:58:43.264Z,95258.17
2023-04-16T02:01:12.247Z,95259.89
2023-04-16T02:03:42.007Z,95257.19
2023-04-16T02:06:10.544Z,95260.05
2023-04-16T02:08:38.823Z,95263.10
2023-04-16T02:11:07.821Z,95259.61
2023-04-16T02:13:36.921Z,95259.87
2023-04-16T02:16:06.165Z,95260.15
2023-04-16T02:18:55.323Z,95258.29
2023-04-16T02:21:24.379Z,95260.02
2023-04-16T02:23:52.864Z,95256.89
2023-04-16T02:26:26.713Z,95254.33
2023-04-16T02:28:56.707Z,95252.27
2023-04-16T02:31:28.999Z,95249.46
2023-04-16T02:33:58.398Z,95250.44
2023-04-16T02:36:27.664Z,95251.20
2023-04-16T02:38:56.245Z,95249.53
2023-04-16T02:41:25.377Z,95251.14
2023-04-16T02:43:53.726Z,95247.92
2023-04-16T02:46:22.450Z,95245.44
2023-04-16T02:48:51.645Z,95243.27
2023-04-16T02:51:20.200Z,95244.07
2023-04-16T02:53:48.641Z,95245.36
2023-04-16T02:56:16.874Z,95243.25
2023-04-16T02:58:45.488Z,95249.27
2023-04-16T03:01:13.797Z,95245.73
2023-04-16T03:03:42.107Z,95253.13
2023-04-16T03:06:10.299Z,95250.35
2023-04-16T03:08:38.586Z,95248.89
2023-04-16T03:11:07.824Z,95249.95
2023-04-16T03:13:36.472Z,95255.06
2023-04-16T03:16:05.389Z,95256.57
2023-04-16T03:18:33.458Z,95258.66
2023-04-16T03:21:01.690Z,95259.57
2023-04-16T03:23:31.091Z,95261.30
2023-04-16T03:25:59.475Z,95265.42
2023-04-16T03:28:27.955Z,95270.77
2023-04-16T03:30:56.492Z,95275.42
2023-04-16T03:33:25.024Z,95276.48
2023-04-16T03:35:59.750Z,95277.33
2023-04-16T03:38:30.623Z,95275.60
2023-04-16T03:41:00.180Z,95283.27
2023-04-16T03:43:28.703Z,95285.13
2023-04-16T03:45:57.488Z,95281.38
2023-04-16T03:48:26.171Z,95282.31
2023-04-16T03:50:55.198Z,95277.45
2023-04-16T03:53:23.745Z,95277.89
2023-04-16T03:55:52.945Z,95274.70
2023-04-16T03:58:22.060Z,95284.85
2023-04-16T04:00:52.059Z,95288.90
2023-04-16T04:03:21.185Z,95298.10
2023-04-16T04:05:50.698Z,95298.42
2023-04-16T04:08:26.322Z,95300.77
2023-04-16T04:10:54.798Z,95304.34
2023-04-16T04:13:24.514Z,95309.40
2023-04-16T04:15:53.313Z,95311.52
2023-04-16T04:18:22.256Z,95305.92
2023-04-16T04:20:50.482Z,95303.05
2023-04-16T04:23:20.588Z,95299.44
2023-04-16T04:25:49.363Z,95307.66
2023-04-16T04:28:17.863Z,95308.64
2023-04-16T04:30:46.141Z,95311.55
2023-04-16T04:33:14.646Z,95306.42
2023-04-16T04:35:43.420Z,95304.50
2023-04-16T04:40:40.274Z,95310.91
2023-04-16T04:43:09.534Z,95314.48
2023-04-16T04:45:37.919Z,95315.79
2023-04-16T04:48:07.367Z,95319.86
2023-04-16T04:50:37.125Z,95320.37
2023-04-16T04:53:10.177Z,95319.14
2023-04-16T04:55:39.849Z,95316.36
2023-04-16T04:58:08.828Z,95319.63
2023-04-16T05:00:37.567Z,95325.84
2023-04-16T05:03:09.812Z,95328.41
2023-04-16T05:05:40.901Z,95326.23
2023-04-16T05:08:09.075Z,95322.70
2023-04-16T05:10:37.391Z,95322.64
2023-04-16T05:13:05.928Z,95320.80
2023-04-16T05:15:34.105Z,95320.81
2023-04-16T05:18:02.550Z,95318.97
2023-04-16T05:20:31.159Z,95317.98
2023-04-16T05:22:59.318Z,95314.20
2023-04-16T05:25:27.552Z,95308.29
2023-04-16T05:27:56.004Z,95305.86
2023-04-16T05:30:24.533Z,95306.94
2023-04-16T05:32:52.816Z,95308.33
2023-04-16T05:35:21.348Z,95305.98
2023-04-16T05:37:49.722Z,95307.90
2023-04-16T05:40:17.999Z,95296.84
2023-04-16T05:42:46.115Z,95300.75
2023-04-16T05:45:14.552Z,95301.19
2023-04-16T05:47:43.071Z,95304.67
2023-04-16T05:50:11.635Z,95309.07
2023-04-16T05:52:40.013Z,95314.61
2023-04-16T05:55:08.791Z,95312.86
2023-04-16T05:57:37.069Z,95309.97
2023-04-16T06:00:06.271Z,95301.39
2023-04-16T06:02:40.450Z,95298.41
2023-04-16T06:05:08.945Z,95303.16
2023-04-16T06:07:37.294Z,95303.31
2023-04-16T06:10:06.170Z,95297.54
2023-04-16T06:12:34.433Z,95295.23
2023-04-16T06:15:03.836Z,95291.40
2023-04-16T06:17:32.223Z,95285.98
2023-04-16T06:20:00.640Z,95287.81
2023-04-16T06:22:29.084Z,95284.70
2023-04-16T06:24:57.448Z,95285.88
2023-04-16T06:27:26.085Z,95288.71
2023-04-16T06:29:54.524Z,95286.98
2023-04-16T06:32:22.948Z,95284.30
2023-04-16T06:34:51.491Z,95286.23
2023-04-16T06:37:19.759Z,95290.48
2023-04-16T06:39:47.963Z,95284.19
2023-04-16T06:42:16.316Z,95285.51
2023-04-16T06:44:44.529Z,95289.88
2023-04-16T06:47:12.692Z,95298.13
2023-04-16T06:49:40.808Z,95301.95
2023-04-16T06:52:09.124Z,95306.14
2023-04-16T06:54:37.296Z,95305.36
2023-04-16T06:57:05.387Z,95301.58
2023-04-16T06:59:33.544Z,95295.13
2023-04-16T07:02:02.166Z,95293.52
2023-04-16T07:04:30.729Z,95297.38
2023-04-16T07:06:59.116Z,95293.42
2023-04-16T07:09:27.600Z,95296.50
2023-04-16T07:11:55.863Z,95290.69
2023-04-16T07:14:24.128Z,95291.82
2023-04-16T07:16:52.564Z,95288.86
2023-04-16T07:19:21.471Z,95288.34
2023-04-16T07:21:49.775Z,95288.02
2023-04-16T07:24:18.069Z,95287.63
2023-04-16T07:26:46.304Z,95291.38
2023-04-16T07:29:14.626Z,95289.36
2023-04-16T07:31:42.924Z,95289.54
2023-04-16T07:34:11.790Z,95288.49
2023-04-16T07:36:40.073Z,95293.70
2023-04-16T07:39:08.761Z,95288.59
2023-04-16T07:41:37.551Z,95286.73
2023-04-16T07:44:06.046Z,95285.66
2023-04-16T07:46:43.582Z,95284.80
2023-04-16T07:49:15.752Z,95282.86
2023-04-16T07:51:44.192Z,95278.40
2023-04-16T07:54:12.497Z,95278.64
2023-04-16T07:56:41.078Z,95279.89
2023-04-16T07:59:21.846Z,95280.95
2023-04-16T08:01:54.110Z,95275.05
2023-04-16T08:04:26.271Z,95275.34
2023-04-16T08:06:55.053Z,95274.27
2023-04-16T08:09:28.907Z,95269.89
2023-04-16T08:11:57.705Z,95267.27
2023-04-16T08:14:25.821Z,95264.33
2023-04-16T08:16:54.126Z,95263.90
2023-04-16T08:19:22.385Z,95264.92
2023-04-16T08:21:50.597Z,95260.98
2023-04-16T08:24:18.759Z,95260.02
2023-04-16T08:26:47.114Z,95261.35
2023-04-16T08:29:15.498Z,95266.69
2023-04-16T08:31:44.248Z,95264.89
2023-04-16T08:34:12.970Z,95264.58
2023-04-16T08:36:41.796Z,95263.52
2023-04-16T08:39:10.322Z,95263.88
2023-04-16T08:41:44.882Z,95265.15
2023-04-16T08:44:28.473Z,95265.50
2023-04-16T08:46:59.307Z,95266.65
2023-04-16T08:49:28.444Z,95262.86
2023-04-16T08:51:57.439Z,95263.64
2023-04-16T08:54:25.637Z,95262.94
2023-04-16T08:56:55.284Z,95266.11
2023-04-16T08:59:24.389Z,95262.50
2023-04-16T09:01:58.279Z,95262.86
2023-04-16T09:04:30.836Z,95260.73
2023-04-16T09:06:59.506Z,95258.39
2023-04-16T09:09:28.635Z,95257.00
2023-04-16T09:11:56.871Z,95256.85
2023-04-16T09:14:25.261Z,95252.88
2023-04-16T09:16:57.530Z,95253.58
2023-04-16T09:19:26.009Z,95259.60
2023-04-16T09:21:54.416Z,95255.29
2023-04-16T09:24:23.281Z,95258.28
2023-04-16T09:26:54.305Z,95265.44
2023-04-16T09:29:38.525Z,95259.13
2023-04-16T09:32:07.963Z,95259.95
2023-04-16T09:34:53.709Z,95260.45
2023-04-16T09:37:22.251Z,95263.33
2023-04-16T09:39:55.971Z,95261.63
2023-04-16T09:42:25.812Z,95263.42
2023-04-16T09:44:56.230Z,95263.43
2023-04-16T09:47:46.458Z,95260.98
2023-04-16T09:50:19.288Z,95258.84
2023-04-16T09:52:51.761Z,95260.06
2023-04-16T09:55:27.430Z,95257.37
2023-04-16T09:58:04.463Z,95255.59
2023-04-16T10:00:32.776Z,95251.66
2023-04-16T10:03:07.713Z,95250.03
2023-04-16T10:05:36.697Z,95251.10
2023-04-16T10:08:13.509Z,95252.20
2023-04-16T10:10:42.197Z,95250.52
2023-04-16T10:13:11.056Z,95248.33
2023-04-16T10:15:39.923Z,95246.64
2023-04-16T10:18:08.713Z,95245.19
2023-04-16T10:20:37.689Z,95240.77
2023-04-16T10:23:06.632Z,95240.34
2023-04-16T10:25:34.964Z,95243.73
2023-04-16T10:28:03.644Z,95240.23
2023-04-16T10:30:32.243Z,95237.98
2023-04-16T10:33:02.531Z,95235.67
2023-04-16T10:35:31.400Z,95233.86
2023-04-16T10:38:27.222Z,95233.14
2023-04-16T10:41:02.962Z,95231.45
2023-04-16T10:43:33.819Z,95232.52
2023-04-16T10:46:37.976Z,95232.55
2023-04-16T10:49:18.009Z,95235.95
2023-04-16T10:52:01.222Z,95233.08
2023-04-16T10:54:30.969Z,95231.17
2023-04-16T10:57:04.812Z,95231.06
2023-04-16T10:59:35.361Z,95230.09
2023-04-16T11:02:09.850Z,95227.76
2023-04-16T11:04:40.441Z,95223.31
2023-04-16T11:07:14.557Z,95226.73
2023-04-16T11:09:47.933Z,95225.75
2023-04-16T11:12:19.306Z,95218.54
2023-04-16T11:14:53.520Z,95221.30
2023-04-16T11:17:22.723Z,95219.23
2023-04-16T11:19:51.348Z,95216.73
2023-04-16T11:22:22.165Z,95216.92
2023-04-16T11:24:56.325Z,95212.84
2023-04-16T11:27:25.113Z,95212.14
2023-04-16T11:30:06.559Z,95213.36
2023-04-16T11:32:36.515Z,95215.49
2023-04-16T11:35:13.622Z,95211.45
2023-04-16T11:37:42.804Z,95208.77
2023-04-16T11:40:11.833Z,95208.44
2023-04-16T11:42:41.652Z,95209.27
2023-04-16T11:45:11.926Z,95203.46
2023-04-16T11:47:53.466Z,95200.79
2023-04-16T11:50:26.025Z,95200.03
2023-04-16T11:52:56.931Z,95197.39
2023-04-16T11:55:25.634Z,95193.74
2023-04-16T11:57:53.936Z,95191.23
2023-04-16T12:00:24.732Z,95186.56
2023-04-16T12:02:55.317Z,95190.05
2023-04-16T12:05:28.720Z,95186.48
2023-04-16T12:08:02.040Z,95182.61
2023-04-16T12:10:32.609Z,95185.77
2023-04-16T12:13:17.607Z,95185.16
2023-04-16T12:15:49.783Z,95181.68
2023-04-16T12:18:20.473Z,95181.52
2023-04-16T12:20:51.148Z,95176.08
2023-04-16T12:23:30.879Z,95167.95
2023-04-16T12:26:03.151Z,95166.64
2023-04-16T12:28:34.183Z,95163.37
2023-04-16T12:31:03.788Z,95161.02
2023-04-16T12:33:32.240Z,95158.40
2023-04-16T12:36:01.803Z,95156.14
2023-04-16T12:38:31.005Z,95152.54
2023-04-16T12:40:59.288Z,95150.99
2023-04-16T12:43:27.771Z,95151.77
2023-04-16T12:45:56.241Z,95145.95
2023-04-16T12:48:24.623Z,95144.19
2023-04-16T12:50:55.253Z,95138.92
2023-04-16T12:53:23.364Z,95138.84
2023-04-16T12:55:51.824Z,95136.77
2023-04-16T12:58:20.396Z,95135.41
2023-04-16T13:00:48.483Z,95129.85
2023-04-16T13:03:16.798Z,95128.36
2023-04-16T13:05:45.765Z,95127.96
2023-04-16T13:08:14.028Z,95126.72
2023-04-16T13:10:42.757Z,95127.07
2023-04-16T13:13:11.205Z,95125.13
2023-04-16T13:15:39.831Z,95127.58
2023-04-16T13:18:08.186Z,95129.05
2023-04-16T13:20:36.746Z,95127.05
2023-04-16T13:23:05.382Z,95126.17
2023-04-16T13:25:33.709Z,95125.72
2023-04-16T13:28:02.204Z,95120.45
2023-04-16T13:30:31.918Z,95120.02
2023-04-16T13:33:00.324Z,95121.11
2023-04-16T13:35:30.303Z,95122.98
2023-04-16T13:37:58.482Z,95119.25
2023-04-16T13:40:26.858Z,95112.42
2023-04-16T13:42:55.050Z,95112.17
2023-04-16T13:45:23.415Z,95111.61
2023-04-16T13:47:51.927Z,95108.91
2023-04-16T13:50:20.590Z,95109.63
2023-04-16T13:52:49.169Z,95103.20
2023-04-16T13:55:19.351Z,95103.66
2023-04-16T13:57:47.874Z,95107.27
2023-04-16T14:00:17.390Z,95106.84
2023-04-16T14:02:49.055Z,95103.16
2023-04-16T14:05:17.522Z,95099.95
2023-04-16T14:07:46.659Z,95098.80
2023-04-16T14:10:14.997Z,95100.22
2023-04-16T14:12:44.899Z,95099.08
2023-04-16T14:15:15.061Z,95099.66
2023-04-16T14:17:44.312Z,95101.89
2023-04-16T14:20:14.216Z,95097.19
2023-04-16T14:22:44.101Z,95096.73
2023-04-16T14:25:12.682Z,95098.61
2023-04-16T14:27:41.791Z,95102.14
2023-04-16T14:30:10.441Z,95106.52
2023-04-16T14:32:38.844Z,95108.28
2023-04-16T14:35:08.558Z,95103.96
2023-04-16T14:37:37.484Z,95103.09
2023-04-16T14:40:08.958Z,95104.21
2023-04-16T14:42:37.880Z,95102.98
2023-04-16T14:45:07.497Z,95105.65
2023-04-16T14:47:37.906Z,95103.81
2023-04-16T14:50:06.965Z,95106.05
2023-04-16T14:52:35.490Z,95110.01
2023-04-16T14:55:04.019Z,95120.80
2023-04-16T14:57:33.694Z,95121.52
2023-04-16T15:00:02.176Z,95127.02
2023-04-16T15:02:30.850Z,95129.13
2023-04-16T15:05:00.695Z,95129.02
2023-04-16T15:07:28.876Z,95132.52
2023-04-16T15:09:57.231Z,95135.02
2023-04-16T15:12:26.637Z,95137.39
2023-04-16T15:14:54.917Z,95136.08
2023-04-16T15:17:23.326Z,95139.00
2023-04-16T15:19:52.535Z,95143.73
2023-04-16T15:22:20.972Z,95149.15
2023-04-16T15:24:50.176Z,95146.56
2023-04-16T15:27:19.485Z,95149.55
2023-04-16T15:29:49.495Z,95150.38
2023-04-16T15:32:17.873Z,95151.86
2023-04-16T15:34:46.706Z,95157.73
2023-04-16T15:37:15.974Z,95157.48
2023-04-16T15:39:44.794Z,95159.30
2023-04-16T15:42:13.453Z,95166.54
2023-04-16T15:44:41.728Z,95164.42
2023-04-16T15:47:10.008Z,95164.85
2023-04-16T15:49:38.398Z,95164.38
2023-04-16T15:52:06.908Z,95162.08
2023-04-16T15:54:35.148Z,95162.92
2023-04-16T15:57:03.564Z,95162.45
2023-04-16T15:59:32.843Z,95159.84
2023-04-16T16:02:01.629Z,95156.33
2023-04-16T16:04:30.207Z,95161.79
2023-04-16T16:06:58.890Z,95159.16
2023-04-16T16:09:28.032Z,95159.21
2023-04-16T16:11:58.037Z,95159.04
2023-04-16T16:14:27.222Z,95161.65
2023-04-16T16:16:55.721Z,95161.28
2023-04-16T16:19:23.781Z,95162.41
2023-04-16T16:21:52.046Z,95168.33
2023-04-16T16:24:20.324Z,95170.96
2023-04-16T16:26:48.803Z,95171.11
2023-04-16T16:29:17.125Z,95172.23
2023-04-16T16:31:45.528Z,95176.94
2023-04-16T16:34:20.367Z,95180.63
2023-04-16T16:36:49.735Z,95183.23
2023-04-16T16:39:18.072Z,95178.59
2023-04-16T16:41:47.896Z,95181.10
2023-04-16T16:44:16.182Z,95182.55
2023-04-16T16:46:44.790Z,95188.21
2023-04-16T16:49:13.988Z,95189.28
2023-04-16T16:51:42.641Z,95190.77
2023-04-16T16:54:11.125Z,95190.89
2023-04-16T16:56:39.409Z,95197.56
2023-04-16T16:59:09.143Z,95198.32
2023-04-16T17:01:37.571Z,95195.55
2023-04-16T17:04:06.223Z,95197.46
2023-04-16T17:06:35.048Z,95194.83
2023-04-16T17:09:04.702Z,95192.79
2023-04-16T17:11:33.177Z,95188.70
2023-04-16T17:14:01.534Z,95189.92
2023-04-16T17:16:29.986Z,95189.06
2023-04-16T17:18:59.546Z,95186.20
2023-04-16T17:21:28.143Z,95187.59
2023-04-16T17:23:58.189Z,95189.29
2023-04-16T17:26:26.629Z,95189.59
2023-04-16T17:28:56.782Z,95190.10
2023-04-16T17:31:27.206Z,95188.79
2023-04-16T17:33:55.969Z,95192.00
2023-04-16T17:36:25.601Z,95194.33
2023-04-16T17:38:53.832Z,95191.85
2023-04-16T17:41:22.064Z,95188.36
2023-04-16T17:43:51.126Z,95186.15
2023-04-16T17:46:19.521Z,95188.91
2023-04-16T17:48:49.028Z,95191.20
2023-04-16T17:51:17.419Z,95195.20
2023-04-16T17:53:46.122Z,95197.17
2023-04-16T17:56:14.767Z,95201.73
2023-04-16T17:58:43.153Z,95203.27
2023-04-16T18:01:11.692Z,95210.28
2023-04-16T18:03:40.455Z,95216.78
2023-04-16T18:06:08.824Z,95221.28
2023-04-16T18:08:37.188Z,95218.86
2023-04-16T18:11:08.864Z,95221.24
2023-04-16T18:13:37.084Z,95217.79
2023-04-16T18:16:05.379Z,95215.82
2023-04-16T18:18:33.698Z,95216.48
2023-04-16T18:21:01.849Z,95219.55
2023-04-16T18:23:30.138Z,95221.90
2023-04-16T18:25:58.917Z,95224.40
2023-04-16T18:28:27.631Z,95223.82
2023-04-16T18:30:58.874Z,95227.27
2023-04-16T18:33:52.505Z,95228.44
2023-04-16T18:36:15.901Z,95230.09
2023-04-16T18:38:59.564Z,95234.82
2023-04-16T18:41:31.957Z,95234.73
2023-04-16T18:44:00.282Z,95233.92
2023-04-16T18:46:28.505Z,95237.92
2023-04-16T18:48:56.839Z,95237.36
2023-04-16T18:51:25.523Z,95235.61
2023-04-16T18:53:53.907Z,95234.77
2023-04-16T18:56:22.147Z,95233.88
2023-04-16T18:58:50.391Z,95231.60
2023-04-16T19:01:18.700Z,95228.08
2023-04-16T19:03:47.627Z,95227.86
2023-04-16T19:06:16.014Z,95227.38
2023-04-16T19:08:44.178Z,95226.89
2023-04-16T19:11:12.492Z,95223.83
2023-04-16T19:13:40.852Z,95223.63
2023-04-16T19:16:11.656Z,95220.66
2023-04-16T19:18:40.242Z,95225.20
2023-04-16T19:21:11.120Z,95227.14
2023-04-16T19:23:39.511Z,95223.17
2023-04-16T19:26:07.989Z,95225.38
2023-04-16T19:28:36.707Z,95222.80
2023-04-16T19:31:04.945Z,95225.48
2023-04-16T19:33:33.118Z,95226.65
2023-04-16T19:36:02.645Z,95223.78
2023-04-16T19:38:33.666Z,95222.21
2023-04-16T19:41:02.184Z,95222.01
2023-04-16T19:43:31.171Z,95222.36
2023-04-16T19:45:59.530Z,95219.50
2023-04-16T19:48:28.239Z,95220.05
2023-04-16T19:50:56.327Z,95220.27
2023-04-16T19:53:25.254Z,95219.69
2023-04-16T19:55:53.458Z,95217.52
2023-04-16T19:58:22.063Z,95219.28
2023-04-16T20:00:50.764Z,95217.58
2023-04-16T20:03:18.988Z,95213.78
2023-04-16T20:05:50.995Z,95209.02
2023-04-16T20:08:19.466Z,95206.35
2023-04-16T20:10:47.532Z,95202.92
2023-04-16T20:13:18.466Z,95205.04
2023-04-16T20:15:47.466Z,95206.46
2023-04-16T20:18:15.648Z,95204.04
2023-04-16T20:20:43.832Z,95201.94
2023-04-16T20:23:12.090Z,95204.13
2023-04-16T20:25:44.053Z,95201.47
2023-04-16T20:28:14.727Z,95201.80
2023-04-16T20:30:43.077Z,95207.91
2023-04-16T20:33:11.459Z,95206.57
2023-04-16T20:35:39.954Z,95204.79
2023-04-16T20:38:08.619Z,95211.70
2023-04-16T20:40:38.329Z,95205.48
2023-04-16T20:43:10.422Z,95210.79
2023-04-16T20:45:41.090Z,95209.42
2023-04-16T20:48:09.743Z,95205.73
2023-04-16T20:50:38.207Z,95206.48
2023-04-16T20:53:06.518Z,95213.85
2023-04-16T20:55:34.981Z,95209.95
2023-04-16T20:58:03.248Z,95209.46
2023-04-16T21:00:31.439Z,95212.01
2023-04-16T21:03:00.175Z,95207.73
2023-04-16T21:05:30.195Z,95205.83
2023-04-16T21:07:58.519Z,95206.31
2023-04-16T21:10:26.989Z,95203.75
2023-04-16T21:12:55.796Z,95205.79
2023-04-16T21:15:24.018Z,95205.05
2023-04-16T21:17:52.543Z,95204.88
2023-04-16T21:20:20.947Z,95206.66
2023-04-16T21:22:50.541Z,95202.56
2023-04-16T21:25:18.708Z,95204.42
2023-04-16T21:27:46.986Z,95205.97
2023-04-16T21:30:16.021Z,95208.90
2023-04-16T21:32:44.875Z,95204.50
2023-04-16T21:35:13.563Z,95203.34
2023-04-16T21:37:41.947Z,95206.50
2023-04-16T21:40:10.751Z,95206.81
2023-04-16T21:42:42.493Z,95211.62
2023-04-16T21:45:11.403Z,95207.11
2023-04-16T21:47:39.780Z,95203.28
2023-04-16T21:50:09.008Z,95205.80
2023-04-16T21:52:40.848Z,95204.08
2023-04-16T21:55:09.934Z,95204.89
2023-04-16T21:57:38.202Z,95206.29
2023-04-16T22:00:14.890Z,95203.89
2023-04-16T22:02:43.687Z,95197.30
2023-04-16T22:05:12.415Z,95197.06
2023-04-16T22:07:40.766Z,95202.13
2023-04-16T22:10:09.846Z,95200.66
2023-04-16T22:12:38.112Z,95200.98
2023-04-16T22:15:07.430Z,95205.04
2023-04-16T22:17:36.093Z,95206.50
2023-04-16T22:20:13.337Z,95203.36
2023-04-16T22:22:42.726Z,95206.06
2023-04-16T22:25:11.653Z,95208.99
2023-04-16T22:27:40.069Z,95209.55
2023-04-16T22:30:09.497Z,95208.45
2023-04-16T22:32:38.617Z,95208.31
2023-04-16T22:35:07.818Z,95207.17
2023-04-16T22:37:35.911Z,95204.95
2023-04-16T22:40:08.551Z,95204.61
2023-04-16T22:42:37.210Z,95199.35
2023-04-16T22:45:06.258Z,95198.95
2023-04-16T22:47:35.023Z,95200.80
2023-04-16T22:50:03.496Z,95201.73
2023-04-16T22:52:32.104Z,95201.34
2023-04-16T22:55:00.450Z,95203.27
2023-04-16T22:57:28.925Z,95203.23
2023-04-16T22:59:57.429Z,95206.46
2023-04-16T23:02:25.808Z,95204.57
2023-04-16T23:04:54.413Z,95197.28
2023-04-16T23:07:22.651Z,95197.27
2023-04-16T23:09:51.178Z,95196.09
2023-04-16T23:12:19.425Z,95191.52
2023-04-16T23:14:48.410Z,95191.59
2023-04-16T23:17:16.527Z,95194.95
2023-04-16T23:19:44.656Z,95191.50
2023-04-16T23:22:13.181Z,95191.96
2023-04-16T23:24:41.420Z,95191.08
2023-04-16T23:27:09.807Z,95188.94
2023-04-16T23:29:38.179Z,95188.43
2023-04-16T23:32:06.561Z,95184.67
2023-04-16T23:34:34.775Z,95184.34
2023-04-16T23:37:03.134Z,95183.71
2023-04-16T23:39:31.406Z,95181.77
2023-04-16T23:41:59.994Z,95179.52
2023-04-16T23:44:28.048Z,95176.86
2023-04-16T23:46:56.581Z,95176.97
2023-04-16T23:49:25.148Z,95175.87
2023-04-16T23:51:53.366Z,95179.23
2023-04-16T23:54:22.202Z,95177.86
2023-04-16T23:56:51.080Z,95173.63
2023-04-16T23:59:19.782Z,95172.55
